Terminal Aerodrome Forecast
Issued by NWS

Home | Current Version | Previous Version | Text Only | Print | Product List | Glossary On
Versions: 1 2 3 4 5 6 7 8 9 10 11 12 13 14 15
000
FTUS41 KPHI 252323
TAFPNE
TAF
KPNE 252323Z 2600/2624 06012G20KT 6SM -RA BR BKN008 OVC012
      TEMPO 2600/2602 3SM RA BR OVC008
     FM260200 06012KT 6SM -SHRA BR OVC008
     FM260400 06010KT 5SM BR VCSH OVC005
     FM260700 05007KT 3SM BR OVC005
     FM261600 04005KT 5SM BR OVC012
     FM261800 01005KT P6SM BKN025=

USA.gov is the U.S. government's official web portal to all federal, state and local government web resources and services.